Felton, California
Current Conditions -  °F | °C
As of 2:53 PM on Saturday 20 Dec 2014 (Local Time) from KWVI Reporting Station
Overcast Overcast  
Wind Chill: 61°   Ceiling: 8000
Heat Index: 61°   Visibility: 10mi
Dew Point: 56°   Wind: 6mph
Humidity: 83%   Direction: 250°WSW
Pressure: 30.21"   Gusts: NA
Location:  37.05°N, 122.07°W
Report Text: KWVI 202253Z AUTO 25005KT 10SM FEW060 OVC080 16/13 A3021 RMK AO2 SLP230 T01610133
Loading
Personal Weather Stations






























Interactive Weather Map New forecast layout! Learn more

10-Day Weather Forecast

Advertisements
Track Severe Weather on mobile